Terminal Aerodrome Forecast
Issued by NWS

Home | Current Version | Previous Version | Text Only | Print | Product List | Glossary On
Versions: 1 2 3 4 5 6 7 8 9 10 11 12
000
FTUS44 KLUB 140500
TAFCDS
TAF
KCDS 140520Z 1406/1506 36007KT P6SM VCSH SCT040 BKN120
     FM141400 VRB06KT P6SM SCT050 BKN080 PROB30 1418/1422 5SM -TSRA
      BKN050CB=

USA.gov is the U.S. government's official web portal to all federal, state and local government web resources and services.